Time;durP1;ratioP1;P1;durP2;ratioP2;P2;SDS_P1;SDS_P2;PMS_P1;PMS_P2;Temp;Humidity;BMP_temperature;BMP_pressure;BME280_temperature;BME280_humidity;BME280_pressure;Samples;Min_cycle;Max_cycle;Signal;HPM_P1;HPM_P2
2022/12/30 00:00:52;;;;;;;24.83;4.25;;;7.30;99.90;;;;;;5017441;28;20064;-57
2022/12/30 00:03:20;;;;;;;20.17;3.65;;;7.30;99.90;;;;;;5019446;28;20287;-57
2022/12/30 00:05:46;;;;;;;16.55;3.30;;;7.30;99.90;;;;;;5024454;28;20053;-56
2022/12/30 00:10:56;;;;;;;22.85;5.50;;;7.30;99.90;;;;;;5030000;28;20412;-55
2022/12/30 00:35:25;;;;;;;14.68;3.35;;;7.20;99.90;;;;;;5043769;28;20049;-56
2022/12/30 00:37:51;;;;;;;19.40;3.15;;;7.20;99.90;;;;;;5030413;28;20037;-56
2022/12/30 00:40:16;;;;;;;16.10;3.83;;;7.20;99.90;;;;;;5030579;28;20041;-56
2022/12/30 00:45:29;;;;;;;15.02;3.85;;;7.10;99.90;;;;;;5026822;28;20484;-56
2022/12/30 00:47:55;;;;;;;24.33;4.28;;;7.10;99.90;;;;;;5012833;28;20037;-56
2022/12/30 00:58:33;;;;;;;18.98;3.25;;;7.00;99.90;;;;;;5025963;28;20048;-56
2022/12/30 01:00:59;;;;;;;21.67;3.58;;;7.00;99.90;;;;;;5026512;28;20041;-56
2022/12/30 01:03:24;;;;;;;22.52;4.07;;;7.00;99.90;;;;;;5025751;28;20412;-56
2022/12/30 01:05:50;;;;;;;17.67;3.10;;;7.00;99.90;;;;;;5016888;28;20034;-56
2022/12/30 01:08:16;;;;;;;11.80;2.88;;;7.00;99.90;;;;;;5018702;28;20041;-57
2022/12/30 01:10:42;;;;;;;17.33;3.55;;;7.00;99.90;;;;;;5025776;28;20446;-55
2022/12/30 01:13:08;;;;;;;18.83;3.72;;;7.00;99.90;;;;;;5008047;28;20354;-56
2022/12/30 01:15:34;;;;;;;15.48;3.60;;;7.00;99.90;;;;;;5027256;28;20045;-56
2022/12/30 01:18:03;;;;;;;19.45;3.38;;;6.90;99.90;;;;;;5024578;28;20132;-57
2022/12/30 01:20:28;;;;;;;24.38;4.50;;;6.90;99.90;;;;;;5024871;28;20030;-57
2022/12/30 01:22:54;;;;;;;20.45;3.92;;;6.90;99.90;;;;;;5024888;28;20041;-57
2022/12/30 01:25:21;;;;;;;28.70;4.50;;;6.90;99.90;;;;;;5024465;28;20033;-57
2022/12/30 01:27:50;;;;;;;14.90;3.45;;;6.90;99.90;;;;;;5026179;28;20107;-56
2022/12/30 01:30:16;;;;;;;22.02;3.33;;;6.90;99.90;;;;;;5038214;28;20045;-56
2022/12/30 01:32:42;;;;;;;22.45;4.78;;;6.80;99.90;;;;;;5020202;28;20789;-57
2022/12/30 01:35:10;;;;;;;17.30;3.60;;;6.80;99.90;;;;;;5026284;28;20033;-56
2022/12/30 01:37:36;;;;;;;18.60;3.90;;;6.80;99.90;;;;;;5024229;28;20038;-57
2022/12/30 01:40:02;;;;;;;15.15;3.55;;;6.80;99.90;;;;;;5028575;28;20030;-56
2022/12/30 01:42:30;;;;;;;16.38;3.20;;;6.80;99.90;;;;;;5026901;28;20412;-57
2022/12/30 01:45:16;;;;;;;17.75;3.60;;;6.80;99.90;;;;;;5025309;28;20045;-57
2022/12/30 01:47:43;;;;;;;18.75;3.13;;;6.80;99.90;;;;;;5028330;28;20402;-56
2022/12/30 01:50:09;;;;;;;17.75;3.47;;;6.90;99.90;;;;;;5021418;28;20053;-57
2022/12/30 01:52:42;;;;;;;19.15;3.42;;;6.80;99.90;;;;;;5011427;28;20041;-56
2022/12/30 01:55:19;;;;;;;17.92;3.10;;;6.80;99.90;;;;;;5024343;28;20554;-56
2022/12/30 01:57:49;;;;;;;18.63;2.85;;;6.80;99.90;;;;;;5024893;28;20075;-56
2022/12/30 02:00:15;;;;;;;26.67;3.28;;;6.80;99.90;;;;;;5014995;28;20052;-57
2022/12/30 02:02:44;;;;;;;22.90;4.10;;;6.80;99.90;;;;;;5028705;28;20049;-57
2022/12/30 02:05:11;;;;;;;17.20;3.45;;;6.80;99.90;;;;;;5041514;28;20029;-56
2022/12/30 02:07:45;;;;;;;28.58;3.63;;;6.70;99.90;;;;;;5027460;28;20112;-57
2022/12/30 02:10:12;;;;;;;19.50;3.08;;;6.70;99.90;;;;;;5021009;28;20041;-57
2022/12/30 02:12:41;;;;;;;16.23;3.45;;;6.70;99.90;;;;;;5020081;28;20091;-57
2022/12/30 02:15:07;;;;;;;21.70;3.05;;;6.70;99.90;;;;;;5023109;28;20056;-57
2022/12/30 02:17:56;;;;;;;18.75;3.08;;;6.70;99.90;;;;;;5009478;28;20507;-57
2022/12/30 02:20:43;;;;;;;24.15;3.60;;;6.70;99.90;;;;;;5024990;28;20292;-57
2022/12/30 02:23:36;;;;;;;24.65;3.80;;;6.70;99.90;;;;;;5022071;28;20049;-56
2022/12/30 02:26:20;;;;;;;18.95;3.67;;;6.60;99.90;;;;;;5031863;28;20512;-57
2022/12/30 02:29:05;;;;;;;;;;;6.60;99.90;;;;;;5021937;28;20056;-55
2022/12/30 02:31:34;;;;;;;18.73;4.45;;;6.60;99.90;;;;;;5025682;28;19925;-57
2022/12/30 02:34:18;;;;;;;20.42;3.25;;;6.50;99.90;;;;;;5025271;28;20054;-57
2022/12/30 02:37:14;;;;;;;25.73;3.95;;;6.60;99.90;;;;;;5026573;28;20116;-57
2022/12/30 02:39:52;;;;;;;16.55;3.75;;;6.50;99.90;;;;;;5023535;28;20037;-56
2022/12/30 02:45:58;;;;;;;22.92;5.22;;;6.50;99.90;;;;;;5032300;28;20041;-56
2022/12/30 02:48:28;;;;;;;16.13;4.00;;;6.50;99.90;;;;;;5026684;28;20106;-56
2022/12/30 02:53:44;;;;;;;19.10;5.75;;;6.60;99.90;;;;;;5024933;28;20092;-57
2022/12/30 02:56:10;;;;;;;21.90;3.58;;;6.60;99.90;;;;;;5044518;28;20069;-57
2022/12/30 02:58:40;;;;;;;21.33;4.00;;;6.60;99.90;;;;;;5028363;28;20049;-56
2022/12/30 03:04:25;;;;;;;19.45;4.55;;;6.60;99.90;;;;;;5027656;28;20243;-57
2022/12/30 03:07:05;;;;;;;24.77;3.55;;;6.60;99.90;;;;;;5038031;28;20176;-56
2022/12/30 03:11:12;;;;;;;20.98;3.95;;;6.60;99.90;;;;;;5028191;28;20037;-56
2022/12/30 03:12:45;;;;;;;17.50;3.38;;;6.50;99.90;;;;;;5018857;28;20038;-55
2022/12/30 03:15:17;;;;;;;17.98;3.75;;;6.50;99.90;;;;;;5026984;28;20046;-56
2022/12/30 03:17:44;;;;;;;22.27;3.45;;;6.50;99.90;;;;;;5024287;28;20051;-56
2022/12/30 03:20:14;;;;;;;21.52;4.20;;;6.50;99.90;;;;;;5039102;28;20121;-56
2022/12/30 03:28:15;;;;;;;26.60;3.88;;;6.40;99.90;;;;;;5026071;28;20256;-58
2022/12/30 03:30:53;;;;;;;21.70;4.03;;;6.40;99.90;;;;;;5026929;28;20038;-57
2022/12/30 03:33:22;;;;;;;25.98;4.55;;;6.40;99.90;;;;;;5021114;28;20106;-57
2022/12/30 03:36:21;;;;;;;16.98;3.53;;;6.30;99.90;;;;;;5023372;28;20167;-57
2022/12/30 03:38:52;;;;;;;24.77;4.18;;;6.30;99.90;;;;;;5026590;28;20057;-56
2022/12/30 03:41:21;;;;;;;22.35;3.70;;;6.20;99.90;;;;;;5027058;28;20276;-56
2022/12/30 03:43:48;;;;;;;23.30;5.88;;;6.20;99.90;;;;;;5026912;28;20392;-55
2022/12/30 03:46:13;;;;;;;21.27;4.93;;;6.10;99.90;;;;;;5026524;28;20045;-57
2022/12/30 03:48:39;;;;;;;21.48;3.97;;;6.10;99.90;;;;;;5025971;28;20271;-57
2022/12/30 03:51:07;;;;;;;25.20;3.67;;;6.10;99.90;;;;;;5038098;22;20046;-82
2022/12/30 03:53:33;;;;;;;24.98;4.28;;;6.00;99.90;;;;;;5045933;28;20045;-83
2022/12/30 03:56:10;;;;;;;18.83;4.00;;;6.60;99.90;;;;;;5029256;28;20476;-82
2022/12/30 03:58:41;;;;;;;22.02;4.28;;;6.00;99.90;;;;;;5023219;28;20354;-82
2022/12/30 04:01:07;;;;;;;19.45;4.35;;;6.00;99.90;;;;;;5036896;28;20065;-83
2022/12/30 04:03:32;;;;;;;17.58;3.95;;;5.90;99.90;;;;;;5027263;28;20068;-83
2022/12/30 04:05:58;;;;;;;21.00;4.32;;;5.90;99.90;;;;;;5007232;28;20101;-83
2022/12/30 04:08:24;;;;;;;21.17;4.30;;;5.90;99.90;;;;;;4999914;28;20195;-82
2022/12/30 04:10:55;;;;;;;22.42;4.28;;;5.90;99.90;;;;;;5017776;28;20065;-83
2022/12/30 04:13:29;;;;;;;20.13;4.13;;;5.90;99.90;;;;;;4996313;28;20057;-82
2022/12/30 04:15:56;;;;;;;;;;;5.90;99.90;;;;;;5030376;28;20587;-81
2022/12/30 04:18:31;;;;;;;23.33;4.30;;;5.90;99.90;;;;;;5010471;28;20298;-82
2022/12/30 04:20:57;;;;;;;27.63;4.65;;;5.80;99.90;;;;;;4992920;28;20050;-84
2022/12/30 04:23:23;;;;;;;26.73;5.03;;;5.80;99.90;;;;;;4993553;28;20042;-82
2022/12/30 04:26:11;;;;;;;;;;;;;;;;;;;;;
2022/12/30 04:28:42;;;;;;;19.80;4.25;;;5.80;99.90;;;;;;5015272;28;20045;-83
2022/12/30 04:31:11;;;;;;;22.52;4.68;;;6.30;99.90;;;;;;5019310;28;20050;-82
2022/12/30 04:33:45;;;;;;;28.60;5.25;;;5.80;99.90;;;;;;5015729;28;20116;-84
2022/12/30 04:36:10;;;;;;;;;;;5.70;99.90;;;;;;4996072;28;20045;-82
2022/12/30 04:38:39;;;;;;;26.15;6.78;;;5.70;99.90;;;;;;5015369;28;19925;-84
2022/12/30 04:41:08;;;;;;;24.60;5.10;;;5.70;99.90;;;;;;5002744;28;20042;-81
2022/12/30 04:43:55;;;;;;;19.88;5.25;;;5.70;99.90;;;;;;4998563;28;20060;-81
2022/12/30 04:46:26;;;;;;;23.05;5.10;;;6.00;99.90;;;;;;5011555;28;20055;-82
2022/12/30 04:49:07;;;;;;;16.60;4.65;;;6.10;99.90;;;;;;5030152;28;20042;-82
2022/12/30 04:51:35;;;;;;;22.70;5.82;;;6.20;99.90;;;;;;4976029;28;20042;-83
2022/12/30 04:54:20;;;;;;;19.83;5.30;;;5.80;99.90;;;;;;4993367;28;20045;-85
2022/12/30 04:56:51;;;;;;;17.77;4.00;;;5.90;99.90;;;;;;4983058;28;20050;-82
2022/12/30 04:59:23;;;;;;;27.33;4.65;;;5.90;99.90;;;;;;4999649;28;20132;-83
2022/12/30 05:02:04;;;;;;;19.00;5.55;;;5.90;99.90;;;;;;5016242;28;20042;-82
2022/12/30 05:04:38;;;;;;;;;;;5.90;99.90;;;;;;5011327;28;20073;-82
2022/12/30 05:07:07;;;;;;;15.27;4.10;;;6.00;99.90;;;;;;4993216;28;19944;-83
2022/12/30 05:09:36;;;;;;;20.77;4.25;;;5.90;99.90;;;;;;5015106;28;20041;-83
2022/12/30 05:12:25;;;;;;;17.90;3.72;;;6.00;99.90;;;;;;4992130;28;20076;-84
2022/12/30 05:14:51;;;;;;;20.17;4.88;;;6.00;99.90;;;;;;5015644;28;20077;-82
2022/12/30 05:17:28;;;;;;;24.48;4.38;;;6.00;99.90;;;;;;4995978;28;20086;-83
2022/12/30 05:19:59;;;;;;;27.90;5.00;;;6.10;99.90;;;;;;5010739;28;20041;-82
2022/12/30 05:22:49;;;;;;;16.10;3.45;;;6.10;99.90;;;;;;4976080;28;20390;-82
2022/12/30 05:29:00;;;;;;;19.65;4.10;;;6.10;99.90;;;;;;5008725;28;20037;-82
2022/12/30 05:31:42;;;;;;;16.17;3.47;;;5.40;99.90;;;;;;5012408;28;20057;-83
2022/12/30 05:34:08;;;;;;;22.73;4.20;;;6.10;99.90;;;;;;5017957;28;20038;-83
2022/12/30 05:36:37;;;;;;;18.45;4.47;;;6.10;99.90;;;;;;5009753;28;20104;-81
2022/12/30 05:39:03;;;;;;;16.90;3.50;;;6.10;99.90;;;;;;5009868;28;20053;-83
2022/12/30 05:41:31;;;;;;;18.38;4.40;;;6.10;99.90;;;;;;5019267;28;20037;-83
2022/12/30 05:43:57;;;;;;;19.13;4.25;;;6.00;99.90;;;;;;5003641;28;20042;-83
2022/12/30 05:46:26;;;;;;;14.60;3.08;;;6.80;99.90;;;;;;5017050;28;20040;-82
2022/12/30 05:48:51;;;;;;;21.98;5.22;;;6.10;99.90;;;;;;4994157;28;20038;-83
2022/12/30 05:51:17;;;;;;;13.88;3.65;;;6.00;99.90;;;;;;5014816;28;20037;-83
2022/12/30 05:53:43;;;;;;;16.70;3.50;;;6.10;99.90;;;;;;5017144;28;20413;-82
2022/12/30 05:56:22;;;;;;;16.05;3.78;;;6.10;99.90;;;;;;4998191;28;20034;-82
2022/12/30 05:58:56;;;;;;;17.23;4.15;;;5.80;99.90;;;;;;4993045;28;20568;-85
2022/12/30 06:01:42;;;;;;;19.00;4.10;;;6.00;99.90;;;;;;5015728;28;20048;-82
2022/12/30 06:04:16;;;;;;;16.15;3.50;;;5.60;99.90;;;;;;5014012;28;20575;-83
2022/12/30 06:06:42;;;;;;;17.08;4.40;;;6.10;99.90;;;;;;5013336;28;20129;-84
2022/12/30 06:09:08;;;;;;;13.95;3.55;;;5.90;99.90;;;;;;5009331;28;20121;-82
2022/12/30 06:11:44;;;;;;;15.88;4.90;;;5.90;99.90;;;;;;4997287;28;20131;-82
2022/12/30 06:14:19;;;;;;;16.70;4.78;;;5.90;99.90;;;;;;5010050;28;20068;-82
2022/12/30 06:16:50;;;;;;;15.60;4.38;;;6.10;99.90;;;;;;5008764;28;20100;-82
2022/12/30 06:19:21;;;;;;;21.00;4.72;;;5.70;99.90;;;;;;5019287;28;20030;-82
2022/12/30 06:21:53;;;;;;;14.07;4.55;;;5.70;99.90;;;;;;4997487;28;20104;-83
2022/12/30 06:24:27;;;;;;;13.02;3.58;;;5.60;99.90;;;;;;4992451;28;20058;-81
2022/12/30 06:26:59;;;;;;;16.02;4.13;;;5.10;99.90;;;;;;5008844;28;20050;-83
2022/12/30 06:29:30;;;;;;;14.85;4.93;;;6.20;99.90;;;;;;5014660;28;20030;-83
2022/12/30 06:31:58;;;;;;;17.25;4.07;;;5.50;99.90;;;;;;5012292;28;20046;-82
2022/12/30 06:34:43;;;;;;;16.25;4.38;;;5.50;99.90;;;;;;5012493;28;20048;-81
2022/12/30 06:37:14;;;;;;;21.83;6.07;;;5.50;99.90;;;;;;5010598;28;20030;-83
2022/12/30 06:39:40;;;;;;;21.50;5.20;;;5.50;99.90;;;;;;4995434;28;20108;-84
2022/12/30 06:42:10;;;;;;;18.58;4.50;;;5.20;99.90;;;;;;5015789;28;20030;-85
2022/12/30 06:44:36;;;;;;;20.42;6.40;;;4.60;99.90;;;;;;5015360;28;20144;-81
2022/12/30 06:47:08;;;;;;;22.58;5.13;;;5.40;99.90;;;;;;5014906;28;20041;-82
2022/12/30 06:49:50;;;;;;;22.98;4.43;;;5.40;99.90;;;;;;5013919;28;20096;-83
2022/12/30 06:53:35;;;;;;;18.80;4.55;;;5.40;99.90;;;;;;4997264;28;20068;-84
2022/12/30 06:56:26;;;;;;;19.98;4.25;;;5.00;99.90;;;;;;5004099;28;20558;-82
2022/12/30 07:02:17;;;;;;;;;;;;;;;;;;;;;
2022/12/30 07:05:21;;;;;;;16.08;4.60;;;4.90;99.90;;;;;;5020896;28;20058;-82
2022/12/30 07:11:49;;;;;;;14.88;4.32;;;6.00;99.90;;;;;;5002471;28;20674;-81
2022/12/30 07:14:50;;;;;;;17.33;5.03;;;5.00;99.90;;;;;;4997916;28;20104;-81
2022/12/30 07:17:22;;;;;;;14.73;4.93;;;5.30;99.90;;;;;;5007860;28;20068;-83
2022/12/30 07:22:42;;;;;;;;;;;5.30;99.90;;;;;;4969001;28;20046;-82
2022/12/30 07:25:14;;;;;;;12.95;4.35;;;5.20;99.90;;;;;;5007793;28;19922;-82
2022/12/30 07:28:25;;;;;;;;;;;;;;;;;;;;;
2022/12/30 07:31:38;;;;;;;20.60;4.43;;;5.20;99.90;;;;;;5019754;28;20054;-83
2022/12/30 07:34:07;;;;;;;21.02;4.05;;;5.30;99.90;;;;;;4980295;28;20042;-83
2022/12/30 07:36:36;;;;;;;23.85;3.95;;;5.20;99.90;;;;;;5035138;28;20061;-83
2022/12/30 07:39:17;;;;;;;22.05;4.80;;;5.20;99.90;;;;;;5018073;28;20042;-82
2022/12/30 07:42:04;;;;;;;;;;;;;;;;;;;;;
2022/12/30 07:44:30;;;;;;;18.67;5.07;;;5.20;99.90;;;;;;5034268;28;20049;-86
2022/12/30 07:47:26;;;;;;;14.40;3.80;;;5.70;99.90;;;;;;4999254;28;20482;-82
2022/12/30 07:49:52;;;;;;;17.95;4.80;;;5.20;99.90;;;;;;5020170;28;20065;-81
2022/12/30 07:52:24;;;;;;;18.30;3.65;;;5.20;99.90;;;;;;5037381;28;20049;-82
2022/12/30 07:54:50;;;;;;;12.45;3.42;;;5.70;99.90;;;;;;5005291;28;20050;-85
2022/12/30 07:57:16;;;;;;;19.88;4.47;;;5.20;99.90;;;;;;5024315;28;20478;-83
2022/12/30 07:59:41;;;;;;;17.02;4.38;;;5.20;99.90;;;;;;5026036;28;20044;-83
2022/12/30 08:02:11;;;;;;;15.90;3.65;;;5.30;99.90;;;;;;5009338;28;20497;-83
2022/12/30 08:04:37;;;;;;;17.73;3.42;;;5.20;99.90;;;;;;5019019;28;20076;-87
2022/12/30 08:07:05;;;;;;;15.63;3.60;;;6.00;99.90;;;;;;5008087;28;20046;-82
2022/12/30 08:09:31;;;;;;;15.48;4.18;;;5.20;99.90;;;;;;5022420;28;20037;-85
2022/12/30 08:11:57;;;;;;;15.00;3.55;;;5.20;99.90;;;;;;5004320;28;20050;-83
2022/12/30 08:14:23;;;;;;;17.63;3.53;;;5.20;99.90;;;;;;5007355;28;20092;-83
2022/12/30 08:16:48;;;;;;;19.52;3.80;;;5.20;99.90;;;;;;5004377;28;20045;-84
2022/12/30 08:19:17;;;;;;;13.52;3.20;;;5.30;99.90;;;;;;5013562;28;20025;-82
2022/12/30 08:21:43;;;;;;;19.77;5.00;;;4.50;99.90;;;;;;5020805;28;20050;-83
2022/12/30 08:24:11;;;;;;;19.80;3.75;;;5.00;99.90;;;;;;5020343;28;20117;-83
2022/12/30 08:26:37;;;;;;;14.85;3.70;;;5.10;99.90;;;;;;5004697;28;20030;-83
2022/12/30 08:29:03;;;;;;;15.95;3.30;;;5.20;99.90;;;;;;5003613;28;20075;-82
2022/12/30 08:31:33;;;;;;;17.67;3.95;;;5.30;99.90;;;;;;5039008;28;20041;-83
2022/12/30 08:33:58;;;;;;;17.02;3.88;;;5.20;99.90;;;;;;5004294;28;20574;-83
2022/12/30 08:36:29;;;;;;;24.67;4.25;;;5.30;99.90;;;;;;5006146;28;20034;-82
2022/12/30 08:39:00;;;;;;;19.77;4.97;;;5.30;99.90;;;;;;5038356;28;20076;-82
2022/12/30 08:41:32;;;;;;;21.02;4.63;;;5.30;99.90;;;;;;5000096;28;20105;-83
2022/12/30 08:44:01;;;;;;;16.60;3.28;;;5.30;99.90;;;;;;5021826;28;20048;-84
2022/12/30 08:46:31;;;;;;;16.55;3.15;;;5.30;99.90;;;;;;5027206;28;20531;-83
2022/12/30 08:48:57;;;;;;;14.38;3.03;;;5.40;99.90;;;;;;5008697;28;20030;-83
2022/12/30 08:51:30;;;;;;;15.50;4.05;;;5.40;99.90;;;;;;5025343;28;20045;-84
2022/12/30 08:53:56;;;;;;;18.48;4.50;;;6.00;99.90;;;;;;5017357;28;20085;-84
2022/12/30 08:56:24;;;;;;;18.27;3.60;;;5.30;99.90;;;;;;5026823;28;20034;-82
2022/12/30 08:58:52;;;;;;;17.73;3.50;;;5.30;99.90;;;;;;5005465;28;20424;-84
2022/12/30 09:01:26;;;;;;;15.80;3.05;;;5.40;99.90;;;;;;5003918;28;20040;-84
2022/12/30 09:03:55;;;;;;;15.38;3.63;;;5.40;99.90;;;;;;5010886;28;20065;-86
2022/12/30 09:09:14;;;;;;;18.42;3.72;;;5.80;99.90;;;;;;4970116;28;20122;-85
2022/12/30 09:15:31;;;;;;;16.02;3.58;;;5.40;99.90;;;;;;4954241;28;20561;-83
2022/12/30 09:18:47;;;;;;;;;;;;;;;;;;;;;
2022/12/30 09:21:37;;;;;;;14.40;3.60;;;5.20;99.90;;;;;;5030922;28;20161;-83
2022/12/30 09:35:18;;;;;;;15.93;4.07;;;5.50;99.90;;;;;;4975162;28;20051;-82
2022/12/30 09:37:46;;;;;;;15.18;3.17;;;5.50;99.90;;;;;;4989897;28;20515;-82
2022/12/30 09:44:19;;;;;;;14.23;4.00;;;5.50;99.90;;;;;;5020717;28;20120;-83
2022/12/30 09:47:00;;;;;;;16.75;3.78;;;5.60;99.90;;;;;;5019040;28;20050;-82
2022/12/30 09:49:36;;;;;;;11.32;2.88;;;5.60;99.90;;;;;;5016022;28;20046;-83
2022/12/30 09:52:10;;;;;;;13.68;4.10;;;5.60;99.90;;;;;;5016628;28;20021;-81
2022/12/30 09:54:39;;;;;;;19.60;4.03;;;5.70;99.90;;;;;;5018544;28;20033;-83
2022/12/30 09:57:30;;;;;;;15.82;4.25;;;5.70;99.90;;;;;;5019237;28;20041;-82
2022/12/30 10:00:02;;;;;;;15.93;3.53;;;5.70;99.90;;;;;;5016772;28;20097;-82
2022/12/30 10:02:44;;;;;;;15.68;4.05;;;5.80;99.90;;;;;;5011099;28;20045;-84
2022/12/30 10:05:51;;;;;;;15.35;3.45;;;5.80;99.90;;;;;;5006935;28;20084;-85
2022/12/30 10:08:39;;;;;;;11.05;4.10;;;5.80;99.90;;;;;;5003875;28;20033;-83
2022/12/30 10:11:33;;;;;;;17.02;3.65;;;5.80;99.90;;;;;;5006789;28;21057;-82
2022/12/30 10:14:24;;;;;;;10.80;3.63;;;5.90;99.90;;;;;;5025940;28;20052;-82
2022/12/30 10:17:03;;;;;;;12.90;3.17;;;6.00;99.90;;;;;;5014487;28;20041;-83
2022/12/30 10:20:01;;;;;;;15.02;4.22;;;6.00;99.90;;;;;;5024633;28;20053;-83
2022/12/30 10:23:12;;;;;;;8.02;3.35;;;6.10;99.90;;;;;;4990623;28;20043;-83
2022/12/30 10:25:59;;;;;;;15.27;3.90;;;6.10;99.90;;;;;;4975235;28;20073;-85
2022/12/30 10:28:38;;;;;;;8.35;3.25;;;6.20;99.90;;;;;;5002212;28;20030;-84
2022/12/30 10:31:18;;;;;;;15.43;4.93;;;6.20;99.90;;;;;;5012551;28;20052;-83
2022/12/30 10:42:51;;;;;;;15.55;5.50;;;6.40;99.90;;;;;;5052923;22;20076;-61
2022/12/30 10:48:32;;;;;;;12.98;3.45;;;6.40;99.90;;;;;;5012818;28;20439;-58
2022/12/30 10:50:58;;;;;;;13.10;3.35;;;6.40;99.90;;;;;;5018373;28;20055;-58
2022/12/30 10:53:27;;;;;;;11.40;3.65;;;6.50;99.90;;;;;;4995156;28;20045;-58
2022/12/30 10:56:01;;;;;;;10.73;3.15;;;6.50;99.90;;;;;;4979890;28;20042;-58
2022/12/30 10:58:32;;;;;;;;;;;6.50;99.90;;;;;;4980217;28;20057;-58
2022/12/30 11:01:00;;;;;;;12.70;3.92;;;6.50;99.90;;;;;;4967076;28;20360;-57
2022/12/30 11:03:31;;;;;;;11.68;3.15;;;6.50;99.90;;;;;;4966132;28;20033;-59
2022/12/30 11:06:28;;;;;;;13.02;3.95;;;6.50;99.90;;;;;;4980103;28;20126;-57
2022/12/30 11:09:16;;;;;;;13.25;3.53;;;6.50;99.90;;;;;;4973859;28;20050;-58
2022/12/30 11:14:42;;;;;;;14.27;3.33;;;6.50;99.90;;;;;;4971527;28;20042;-58
2022/12/30 11:17:25;;;;;;;8.30;3.03;;;6.50;99.90;;;;;;4974805;28;20416;-58
2022/12/30 11:19:58;;;;;;;9.32;4.00;;;6.60;99.90;;;;;;4975887;28;20050;-58
2022/12/30 11:22:25;;;;;;;12.50;3.25;;;6.60;99.90;;;;;;4975551;28;20488;-58
2022/12/30 11:25:16;;;;;;;13.65;3.10;;;6.60;99.90;;;;;;4979025;28;20448;-58
2022/12/30 11:27:47;;;;;;;15.80;3.03;;;6.60;99.90;;;;;;4994195;28;20049;-58
2022/12/30 11:30:34;;;;;;;10.93;3.03;;;6.70;99.90;;;;;;4997410;28;20381;-58
2022/12/30 11:33:03;;;;;;;9.52;2.92;;;6.70;99.90;;;;;;4975091;28;20528;-57
2022/12/30 11:35:36;;;;;;;10.75;4.40;;;6.80;99.90;;;;;;4974555;28;20046;-58
2022/12/30 11:38:27;;;;;;;19.95;5.72;;;6.80;99.90;;;;;;4974752;28;20400;-58
2022/12/30 11:40:53;;;;;;;11.57;2.80;;;6.80;99.90;;;;;;4996176;28;20804;-58
2022/12/30 11:43:20;;;;;;;9.65;2.40;;;6.90;99.90;;;;;;4961157;28;20133;-58
2022/12/30 11:46:22;;;;;;;11.70;2.70;;;6.90;99.90;;;;;;4971150;28;20402;-57
2022/12/30 11:48:50;;;;;;;11.73;2.88;;;7.00;99.90;;;;;;4951549;28;20378;-58
2022/12/30 11:51:28;;;;;;;11.55;2.97;;;7.00;99.90;;;;;;4978396;28;20042;-59
2022/12/30 11:54:24;;;;;;;11.07;3.92;;;7.00;99.90;;;;;;4957731;28;20053;-59
2022/12/30 11:56:51;;;;;;;8.48;2.20;;;7.00;99.90;;;;;;4982071;28;20136;-59
2022/12/30 11:59:35;;;;;;;7.68;2.38;;;7.10;99.90;;;;;;4967228;28;20052;-57
2022/12/30 12:02:16;;;;;;;8.38;2.38;;;7.10;99.90;;;;;;4975108;28;20045;-57
2022/12/30 12:04:42;;;;;;;5.85;1.90;;;7.10;99.90;;;;;;4997808;28;20054;-58
2022/12/30 12:07:17;;;;;;;11.98;2.80;;;7.10;99.90;;;;;;4999661;28;20559;-57
2022/12/30 12:10:13;;;;;;;6.63;2.13;;;7.10;99.90;;;;;;5000538;28;20034;-56
2022/12/30 12:12:55;;;;;;;6.85;2.20;;;7.20;99.90;;;;;;4977668;28;20491;-57
2022/12/30 12:15:42;;;;;;;10.00;2.30;;;7.20;99.90;;;;;;4991186;28;21108;-57
2022/12/30 12:18:19;;;;;;;8.57;2.90;;;7.20;99.90;;;;;;4974689;28;20533;-56
2022/12/30 12:21:07;;;;;;;12.63;2.15;;;7.30;99.90;;;;;;4985875;28;20509;-57
2022/12/30 12:23:54;;;;;;;6.85;2.05;;;7.30;99.90;;;;;;4974349;28;20069;-58
2022/12/30 12:26:24;;;;;;;10.27;2.40;;;7.30;99.90;;;;;;5017114;23;20049;-58
2022/12/30 12:28:52;;;;;;;8.77;2.40;;;7.40;99.90;;;;;;5041908;28;20131;-59
2022/12/30 12:31:20;;;;;;;7.60;2.08;;;7.40;99.90;;;;;;5032225;28;20148;-58
2022/12/30 12:34:14;;;;;;;6.05;1.90;;;7.40;99.90;;;;;;4995543;28;20306;-58
2022/12/30 12:36:56;;;;;;;6.85;1.80;;;7.40;99.90;;;;;;5038121;28;20037;-59
2022/12/30 12:39:27;;;;;;;8.43;2.10;;;7.50;99.90;;;;;;5011479;28;20060;-59
2022/12/30 12:42:00;;;;;;;7.90;3.28;;;7.50;99.90;;;;;;5038906;28;20086;-59
2022/12/30 12:45:06;;;;;;;7.20;1.80;;;7.50;99.90;;;;;;4999537;28;20041;-58
2022/12/30 12:48:05;;;;;;;13.70;2.60;;;7.50;99.90;;;;;;5037943;28;20044;-58
2022/12/30 12:50:39;;;;;;;4.53;1.70;;;7.60;99.90;;;;;;5014999;28;20033;-57
2022/12/30 12:53:39;;;;;;;11.10;3.50;;;7.60;99.90;;;;;;5026056;28;20124;-57
2022/12/30 12:56:22;;;;;;;7.25;1.90;;;7.60;99.90;;;;;;5004685;28;20260;-58
2022/12/30 12:59:06;;;;;;;11.75;2.08;;;7.60;99.90;;;;;;5035016;28;20114;-58
2022/12/30 13:01:41;;;;;;;;;;;7.60;99.90;;;;;;5016329;28;20056;-58
2022/12/30 13:04:26;;;;;;;10.18;1.55;;;7.70;99.90;;;;;;5021857;28;20443;-58
2022/12/30 13:07:23;;;;;;;8.50;1.80;;;7.70;99.90;;;;;;5017982;28;20048;-58
2022/12/30 13:10:11;;;;;;;7.15;1.38;;;7.70;99.90;;;;;;5024887;28;20168;-59
2022/12/30 13:12:41;;;;;;;6.63;1.60;;;7.80;99.90;;;;;;4990032;28;20071;-58
2022/12/30 13:15:28;;;;;;;6.03;1.67;;;7.90;99.90;;;;;;5016254;28;20427;-58
2022/12/30 13:17:58;;;;;;;7.30;1.60;;;7.80;99.90;;;;;;5002985;28;20456;-58
2022/12/30 13:20:35;;;;;;;10.13;2.20;;;7.90;99.90;;;;;;4994542;28;20305;-58
2022/12/30 13:23:05;;;;;;;5.18;1.70;;;7.90;99.90;;;;;;5021184;28;20043;-58
2022/12/30 13:25:40;;;;;;;7.22;1.58;;;7.90;99.90;;;;;;5013055;28;20051;-58
2022/12/30 13:28:13;;;;;;;4.57;1.42;;;8.00;99.90;;;;;;5011973;28;21826;-59
2022/12/30 13:31:04;;;;;;;5.25;1.30;;;8.00;99.90;;;;;;5012486;28;20288;-58
2022/12/30 13:34:11;;;;;;;3.95;1.30;;;8.00;99.90;;;;;;4997061;28;20087;-58
2022/12/30 13:37:12;;;;;;;5.00;1.20;;;8.10;99.90;;;;;;4995033;28;20049;-58
2022/12/30 13:39:41;;;;;;;8.93;1.85;;;8.10;99.90;;;;;;4982625;28;20057;-59
2022/12/30 13:42:51;;;;;;;5.10;1.52;;;8.20;99.90;;;;;;5012126;28;20095;-59
2022/12/30 13:48:14;;;;;;;;;;;8.30;99.90;;;;;;5011155;28;20053;-61
2022/12/30 13:50:42;;;;;;;6.57;2.00;;;8.30;99.90;;;;;;5009727;28;19967;-61
2022/12/30 13:53:32;;;;;;;5.88;1.38;;;8.30;99.90;;;;;;5009536;28;20049;-62
2022/12/30 13:55:58;;;;;;;6.22;2.33;;;8.30;99.90;;;;;;5022011;28;20198;-61
2022/12/30 13:58:31;;;;;;;9.45;2.03;;;8.30;99.90;;;;;;5006942;28;20116;-61
2022/12/30 14:01:19;;;;;;;6.85;1.88;;;8.40;99.90;;;;;;5009409;28;20077;-62
2022/12/30 14:03:50;;;;;;;7.28;2.15;;;8.40;99.90;;;;;;4984655;28;20061;-60
2022/12/30 14:06:22;;;;;;;6.20;1.52;;;8.40;99.90;;;;;;4987926;28;20053;-62
2022/12/30 14:09:09;;;;;;;7.40;1.30;;;8.40;99.90;;;;;;5006517;28;20493;-61
2022/12/30 14:11:35;;;;;;;6.82;1.95;;;8.40;99.90;;;;;;5006898;28;20038;-62
2022/12/30 14:14:21;;;;;;;5.82;1.30;;;8.40;99.90;;;;;;5009768;28;20042;-61
2022/12/30 14:16:54;;;;;;;5.22;1.67;;;8.40;99.90;;;;;;5007277;28;20116;-61
2022/12/30 14:19:34;;;;;;;3.65;1.35;;;8.40;99.90;;;;;;5009200;28;20042;-62
2022/12/30 14:22:02;;;;;;;6.07;2.00;;;8.50;99.90;;;;;;5011054;28;20046;-60
2022/12/30 14:24:30;;;;;;;7.20;1.50;;;8.50;99.90;;;;;;4993752;28;20365;-61
2022/12/30 14:27:00;;;;;;;6.80;1.40;;;8.50;99.90;;;;;;4996368;28;20500;-61
2022/12/30 14:29:32;;;;;;;4.78;1.10;;;8.50;99.90;;;;;;4999887;28;20065;-60
2022/12/30 14:32:04;;;;;;;9.55;2.28;;;8.50;99.90;;;;;;5026415;28;20046;-60
2022/12/30 14:34:36;;;;;;;6.03;1.20;;;8.50;99.90;;;;;;5026276;28;20052;-61
2022/12/30 14:37:11;;;;;;;5.88;1.60;;;8.50;99.90;;;;;;5011032;28;20124;-61
2022/12/30 14:39:43;;;;;;;7.72;1.70;;;8.50;99.90;;;;;;5010783;28;20038;-62
2022/12/30 14:42:25;;;;;;;12.52;6.43;;;8.50;99.90;;;;;;5011193;28;20065;-61
2022/12/30 14:44:57;;;;;;;6.75;2.13;;;8.50;99.90;;;;;;4996274;28;20084;-61
2022/12/30 14:47:45;;;;;;;7.07;1.20;;;8.50;99.90;;;;;;5022830;28;20121;-61
2022/12/30 14:50:14;;;;;;;7.00;1.98;;;8.50;99.90;;;;;;5006184;28;20556;-61
2022/12/30 14:52:51;;;;;;;4.53;1.20;;;8.50;99.90;;;;;;5021351;28;20108;-62
2022/12/30 14:55:21;;;;;;;3.58;1.50;;;8.50;99.90;;;;;;5010617;28;20053;-62
2022/12/30 14:58:17;;;;;;;6.50;1.80;;;8.60;99.90;;;;;;5022703;28;20524;-62
2022/12/30 15:00:48;;;;;;;4.70;1.33;;;8.60;99.90;;;;;;5008280;28;20100;-62
2022/12/30 15:03:23;;;;;;;6.82;1.42;;;8.60;99.90;;;;;;5009192;28;20046;-62
2022/12/30 15:05:59;;;;;;;6.57;1.33;;;8.60;99.90;;;;;;4988990;28;20366;-64
2022/12/30 15:08:32;;;;;;;3.78;1.40;;;8.70;99.90;;;;;;4997972;28;20117;-62
2022/12/30 15:11:18;;;;;;;5.88;1.67;;;8.70;99.90;;;;;;5009500;28;20092;-62
2022/12/30 15:13:51;;;;;;;6.18;1.52;;;8.60;99.90;;;;;;4994167;28;20041;-62
2022/12/30 15:16:24;;;;;;;5.63;1.70;;;8.60;99.90;;;;;;5008486;28;20084;-62
2022/12/30 15:18:57;;;;;;;4.32;1.55;;;8.50;99.90;;;;;;5009720;28;20436;-62
2022/12/30 15:21:32;;;;;;;7.03;1.88;;;8.50;99.90;;;;;;5007807;28;20046;-62
2022/12/30 15:24:00;;;;;;;5.50;1.45;;;8.50;99.90;;;;;;5002737;28;20413;-61